地図

経路データ

SID SEASON NUMBER BASIN SUBBASIN NAME ISO_TIME NATURE LAT LON WMO_WIND WMO_PRES WMO_AGENCY TRACK_TYPE DIST2LAND LANDFALL IFLAG USA_AGENCY USA_ATCF_ID USA_LAT USA_LON USA_RECORD USA_STATUS USA_WIND USA_PRES USA_SSHS USA_R34_NE USA_R34_SE USA_R34_SW USA_R34_NW USA_R50_NE USA_R50_SE USA_R50_SW USA_R50_NW USA_R64_NE USA_R64_SE USA_R64_SW USA_R64_NW USA_POCI USA_ROCI USA_RMW USA_EYE TOKYO_LAT TOKYO_LON TOKYO_GRADE TOKYO_WIND TOKYO_PRES TOKYO_R50_DIR TOKYO_R50_LONG TOKYO_R50_SHORT TOKYO_R30_DIR TOKYO_R30_LONG TOKYO_R30_SHORT TOKYO_LAND CMA_LAT CMA_LON CMA_CAT CMA_WIND CMA_PRES HKO_LAT HKO_LON HKO_CAT HKO_WIND HKO_PRES NEWDELHI_LAT NEWDELHI_LON NEWDELHI_GRADE NEWDELHI_WIND NEWDELHI_PRES NEWDELHI_CI NEWDELHI_DP NEWDELHI_POCI REUNION_LAT REUNION_LON REUNION_TYPE REUNION_WIND REUNION_PRES REUNION_TNUM REUNION_CI REUNION_RMW REUNION_R34_NE REUNION_R34_SE REUNION_R34_SW REUNION_R34_NW REUNION_R50_NE REUNION_R50_SE REUNION_R50_SW REUNION_R50_NW REUNION_R64_NE REUNION_R64_SE REUNION_R64_SW REUNION_R64_NW BOM_LAT BOM_LON BOM_TYPE BOM_WIND BOM_PRES BOM_TNUM BOM_CI BOM_RMW BOM_R34_NE BOM_R34_SE BOM_R34_SW BOM_R34_NW BOM_R50_NE BOM_R50_SE BOM_R50_SW BOM_R50_NW BOM_R64_NE BOM_R64_SE BOM_R64_SW BOM_R64_NW BOM_ROCI BOM_POCI BOM_EYE BOM_POS_METHOD BOM_PRES_METHOD NADI_LAT NADI_LON NADI_CAT NADI_WIND NADI_PRES WELLINGTON_LAT WELLINGTON_LON WELLINGTON_WIND WELLINGTON_PRES DS824_LAT DS824_LON DS824_STAGE DS824_WIND DS824_PRES TD9636_LAT TD9636_LON TD9636_STAGE TD9636_WIND TD9636_PRES TD9635_LAT TD9635_LON TD9635_WIND TD9635_PRES TD9635_ROCI NEUMANN_LAT NEUMANN_LON NEUMANN_CLASS NEUMANN_WIND NEUMANN_PRES MLC_LAT MLC_LON MLC_CLASS MLC_WIND MLC_PRES USA_GUST BOM_GUST BOM_GUST_PER REUNION_GUST REUNION_GUST_PER USA_SEAHGT USA_SEARAD_NE USA_SEARAD_SE USA_SEARAD_SW USA_SEARAD_NW STORM_SPEED STORM_DIR
1892247N12327 1892 38 NA NA NOT_NAMED 1892-09-03 06:00:00 TS 11.5000 -33.0000 35 hurdat_atl main 1716 1716 O____________O hurdat_atl AL031892 11.5000 -33.0000 TS 35 0 11.5000 -33.0000 TS 35 15 272
1892247N12327 1892 38 NA NA NOT_NAMED 1892-09-03 09:00:00 TS 11.5303 -33.7851 main 1744 1723 P____________P AL031892 11.5303 -33.7851 TS 35 0 11.5303 -33.7851 TS 35 16 274
1892247N12327 1892 38 NA NA NOT_NAMED 1892-09-03 12:00:00 TS 11.6000 -34.6000 35 hurdat_atl main 1723 1706 O____________O hurdat_atl AL031892 11.6000 -34.6000 TS 35 0 11.6000 -34.6000 TS 35 17 277
1892247N12327 1892 38 NA NA NOT_NAMED 1892-09-03 15:00:00 TS 11.7349 -35.4574 main 1703 1699 P____________P AL031892 11.7349 -35.4574 TS 37 0 11.7349 -35.4574 TS 35 17 280
1892247N12327 1892 38 NA NA NOT_NAMED 1892-09-03 18:00:00 TS 11.9000 -36.3000 40 hurdat_atl main 1702 1697 O____________O hurdat_atl AL031892 11.9000 -36.3000 TS 40 0 11.9000 -36.3000 TS 35 16 281
1892247N12327 1892 38 NA NA NOT_NAMED 1892-09-03 21:00:00 TS 12.0573 -37.0800 main 1706 1699 P____________P AL031892 12.0573 -37.0800 TS 40 0 12.0573 -37.0800 TS 35 15 282
1892247N12327 1892 38 NA NA NOT_NAMED 1892-09-04 00:00:00 TS 12.2000 -37.8000 40 hurdat_atl main 1706 1678 O____________O hurdat_atl AL031892 12.2000 -37.8000 TS 40 0 12.2000 -37.8000 TS 35 14 280
1892247N12327 1892 38 NA NA NOT_NAMED 1892-09-04 03:00:00 TS 12.2998 -38.4801 main 1669 1620 P____________P AL031892 12.2998 -38.4801 TS 40 0 12.2998 -38.4801 TS 35 13 279
1892247N12327 1892 38 NA NA NOT_NAMED 1892-09-04 06:00:00 TS 12.4000 -39.1000 40 hurdat_atl main 1620 1572 O____________O hurdat_atl AL031892 12.4000 -39.1000 TS 40 0 12.4000 -39.1000 TS 35 12 282
1892247N12327 1892 38 NA NA NOT_NAMED 1892-09-04 09:00:00 TS 12.5499 -39.6874 main 1572 1541 P____________P AL031892 12.5499 -39.6874 TS 42 0 12.5499 -39.6874 TS 35 11 286
1892247N12327 1892 38 NA NA NOT_NAMED 1892-09-04 12:00:00 TS 12.7000 -40.2000 45 hurdat_atl main 1541 1513 O____________O hurdat_atl AL031892 12.7000 -40.2000 TS 45 0 12.7000 -40.2000 TS 35 10 285
1892247N12327 1892 38 NA NA NOT_NAMED 1892-09-04 15:00:00 TS 12.7999 -40.6301 main 1513 1486 P____________P AL031892 12.7999 -40.6301 TS 47 0 12.7999 -40.6301 TS 35 8 284
1892247N12327 1892 38 NA NA NOT_NAMED 1892-09-04 18:00:00 TS 12.9000 -41.0000 50 hurdat_atl main 1486 1468 O____________O hurdat_atl AL031892 12.9000 -41.0000 TS 50 0 12.9000 -41.0000 TS 35 8 289
1892247N12327 1892 38 NA NA NOT_NAMED 1892-09-04 21:00:00 TS 13.0499 -41.3650 main 1460 1451 P____________P AL031892 13.0499 -41.3650 TS 50 0 13.0499 -41.3650 TS 35 7 294
1892247N12327 1892 38 NA NA NOT_NAMED 1892-09-05 00:00:00 TS 13.2000 -41.7000 50 hurdat_atl main 1451 1435 O____________O hurdat_atl AL031892 13.2000 -41.7000 TS 50 0 13.2000 -41.7000 TS 35 7 292
1892247N12327 1892 38 NA NA NOT_NAMED 1892-09-05 03:00:00 TS 13.2999 -41.9926 main 1435 1419 P____________P AL031892 13.2999 -41.9926 TS 52 0 13.2999 -41.9926 TS 35 6 289
1892247N12327 1892 38 NA NA NOT_NAMED 1892-09-05 06:00:00 TS 13.4000 -42.3000 55 hurdat_atl main 1419 1405 O____________O hurdat_atl AL031892 13.4000 -42.3000 TS 55 0 13.4000 -42.3000 TS 35 7 289
1892247N12327 1892 38 NA NA NOT_NAMED 1892-09-05 09:00:00 TS 13.5274 -42.6626 main 1397 1384 P____________P AL031892 13.5274 -42.6626 TS 57 0 13.5274 -42.6626 TS 35 8 291
1892247N12327 1892 38 NA NA NOT_NAMED 1892-09-05 12:00:00 TS 13.7000 -43.1000 60 hurdat_atl main 1385 1367 O____________O hurdat_atl AL031892 13.7000 -43.1000 TS 60 0 13.7000 -43.1000 TS 35 10 293
1892247N12327 1892 38 NA NA NOT_NAMED 1892-09-05 15:00:00 TS 13.9275 -43.6201 main 1367 1352 P____________P AL031892 13.9275 -43.6201 TS 62 0 13.9275 -43.6201 TS 37 12 295
1892247N12327 1892 38 NA NA NOT_NAMED 1892-09-05 18:00:00 TS 14.2000 -44.2000 65 hurdat_atl main 1355 1343 O____________O hurdat_atl AL031892 14.2000 -44.2000 HU 65 1 14.2000 -44.2000 TS 40 13 296
1892247N12327 1892 38 NA NA NOT_NAMED 1892-09-05 21:00:00 TS 14.4924 -44.7926 main 1346 1330 P____________P AL031892 14.4924 -44.7926 HU 65 1 14.4924 -44.7926 TS 42 13 297
1892247N12327 1892 38 NA NA NOT_NAMED 1892-09-06 00:00:00 TS 14.8000 -45.4000 65 hurdat_atl main 1333 1319 O____________O hurdat_atl AL031892 14.8000 -45.4000 HU 65 1 14.8000 -45.4000 TS 45 13 297
1892247N12327 1892 38 NA NA NOT_NAMED 1892-09-06 03:00:00 TS 15.0925 -46.0226 main 1323 1313 P____________P AL031892 15.0925 -46.0226 HU 67 1 15.0925 -46.0226 TS 47 13 297
1892247N12327 1892 38 NA NA NOT_NAMED 1892-09-06 06:00:00 TS 15.4000 -46.6000 70 hurdat_atl main 1317 1311 O____________O hurdat_atl AL031892 15.4000 -46.6000 HU 70 1 15.4000 -46.6000 TS 50 12 302
1892247N12327 1892 38 NA NA NOT_NAMED 1892-09-06 09:00:00 TS 15.7423 -47.0876 main 1320 1320 P____________P AL031892 15.7423 -47.0876 HU 72 1 15.7423 -47.0876 TS 52 11 309
1892247N12327 1892 38 NA NA NOT_NAMED 1892-09-06 12:00:00 TS 16.1000 -47.5000 75 hurdat_atl main 1340 1340 O____________O hurdat_atl AL031892 16.1000 -47.5000 HU 75 1 16.1000 -47.5000 TS 55 10 313
1892247N12327 1892 38 NA NA NOT_NAMED 1892-09-06 15:00:00 TS 16.4574 -47.8726 main 1363 1363 P____________P AL031892 16.4574 -47.8726 HU 75 1 16.4574 -47.8726 TS 57 10 316
1892247N12327 1892 38 NA NA NOT_NAMED 1892-09-06 18:00:00 TS 16.8000 -48.2000 75 hurdat_atl main 1382 1382 O____________O hurdat_atl AL031892 16.8000 -48.2000 HU 75 1 16.8000 -48.2000 TS 60 9 317
1892247N12327 1892 38 NA NA NOT_NAMED 1892-09-06 21:00:00 TS 17.0999 -48.5077 main 1399 1394 P____________P AL031892 17.0999 -48.5077 HU 77 1 17.0999 -48.5077 TS 60 8 316
1892247N12327 1892 38 NA NA NOT_NAMED 1892-09-07 00:00:00 TS 17.4000 -48.8000 80 hurdat_atl main 1415 1415 O____________O hurdat_atl AL031892 17.4000 -48.8000 HU 80 1 17.4000 -48.8000 TS 60 9 319
1892247N12327 1892 38 NA NA NOT_NAMED 1892-09-07 03:00:00 TS 17.7500 -49.1075 main 1432 1432 P____________P AL031892 17.7500 -49.1075 HU 82 1 17.7500 -49.1075 TS 60 9 321
1892247N12327 1892 38 NA NA NOT_NAMED 1892-09-07 06:00:00 TS 18.1000 -49.4000 85 hurdat_atl main 1462 1462 O____________O hurdat_atl AL031892 18.1000 -49.4000 HU 85 2 18.1000 -49.4000 TS 60 8 321
1892247N12327 1892 38 NA NA NOT_NAMED 1892-09-07 09:00:00 TS 18.4074 -49.6577 main 1482 1482 P____________P AL031892 18.4074 -49.6577 HU 85 2 18.4074 -49.6577 TS 62 8 322
1892247N12327 1892 38 NA NA NOT_NAMED 1892-09-07 12:00:00 TS 18.7000 -49.9000 85 hurdat_atl main 1491 1487 O____________O hurdat_atl AL031892 18.7000 -49.9000 HU 85 2 18.7000 -49.9000 HU 65 8 322
1892247N12327 1892 38 NA NA NOT_NAMED 1892-09-07 15:00:00 TS 19.0000 -50.1501 main 1486 1483 P____________P AL031892 19.0000 -50.1501 HU 85 2 19.0000 -50.1501 HU 65 8 322
1892247N12327 1892 38 NA NA NOT_NAMED 1892-09-07 18:00:00 TS 19.3000 -50.4000 85 hurdat_atl main 1490 1488 O____________O hurdat_atl AL031892 19.3000 -50.4000 HU 85 2 19.3000 -50.4000 HU 65 8 321
1892247N12327 1892 38 NA NA NOT_NAMED 1892-09-07 21:00:00 TS 19.6000 -50.6576 main 1487 1486 P____________P AL031892 19.6000 -50.6576 HU 85 2 19.6000 -50.6576 HU 65 8 322
1892247N12327 1892 38 NA NA NOT_NAMED 1892-09-08 00:00:00 TS 19.9000 -50.9000 85 hurdat_atl main 1493 1493 O____________O hurdat_atl AL031892 19.9000 -50.9000 HU 85 2 19.9000 -50.9000 HU 65 7 325
1892247N12327 1892 38 NA NA NOT_NAMED 1892-09-08 03:00:00 TS 20.1924 -51.1002 main 1501 1501 P____________P AL031892 20.1924 -51.1002 HU 85 2 20.1924 -51.1002 HU 65 7 328
1892247N12327 1892 38 NA NA NOT_NAMED 1892-09-08 06:00:00 TS 20.5000 -51.3000 85 hurdat_atl main 1509 1499 O____________O hurdat_atl AL031892 20.5000 -51.3000 HU 85 2 20.5000 -51.3000 HU 65 8 327
1892247N12327 1892 38 NA NA NOT_NAMED 1892-09-08 09:00:00 TS 20.8350 -51.5426 main 1500 1474 P____________P AL031892 20.8350 -51.5426 HU 85 2 20.8350 -51.5426 HU 65 8 326
1892247N12327 1892 38 NA NA NOT_NAMED 1892-09-08 12:00:00 TS 21.2000 -51.8000 85 hurdat_atl main 1476 1460 O____________O hurdat_atl AL031892 21.2000 -51.8000 HU 85 2 21.2000 -51.8000 HU 65 9 327
1892247N12327 1892 38 NA NA NOT_NAMED 1892-09-08 15:00:00 TS 21.5850 -52.0576 main 1454 1441 P____________P AL031892 21.5850 -52.0576 HU 85 2 21.5850 -52.0576 HU 65 9 330
1892247N12327 1892 38 NA NA NOT_NAMED 1892-09-08 18:00:00 TS 22.0000 -52.3000 85 hurdat_atl main 1444 1432 O____________O hurdat_atl AL031892 22.0000 -52.3000 HU 85 2 22.0000 -52.3000 HU 65 10 334
1892247N12327 1892 38 NA NA NOT_NAMED 1892-09-08 21:00:00 TS 22.4424 -52.5077 main 1435 1429 P____________P AL031892 22.4424 -52.5077 HU 85 2 22.4424 -52.5077 HU 65 10 338
1892247N12327 1892 38 NA NA NOT_NAMED 1892-09-09 00:00:00 TS 22.9000 -52.7000 85 hurdat_atl main 1432 1424 O____________O hurdat_atl AL031892 22.9000 -52.7000 HU 85 2 22.9000 -52.7000 HU 65 10 338
1892247N12327 1892 38 NA NA NOT_NAMED 1892-09-09 03:00:00 TS 23.3500 -52.9076 main 1431 1422 P____________P AL031892 23.3500 -52.9076 HU 85 2 23.3500 -52.9076 HU 65 10 338
1892247N12327 1892 38 NA NA NOT_NAMED 1892-09-09 06:00:00 TS 23.8000 -53.1000 85 hurdat_atl main 1429 1424 O____________O hurdat_atl AL031892 23.8000 -53.1000 HU 85 2 23.8000 -53.1000 HU 65 10 340
1892247N12327 1892 38 NA NA NOT_NAMED 1892-09-09 09:00:00 TS 24.2500 -53.2651 main 1428 1428 P____________P AL031892 24.2500 -53.2651 HU 85 2 24.2500 -53.2651 HU 65 9 343
1892247N12327 1892 38 NA NA NOT_NAMED 1892-09-09 12:00:00 TS 24.7000 -53.4000 85 hurdat_atl main 1443 1443 O____________O hurdat_atl AL031892 24.7000 -53.4000 HU 85 2 24.7000 -53.4000 HU 65 9 346
1892247N12327 1892 38 NA NA NOT_NAMED 1892-09-09 15:00:00 TS 25.1575 -53.5076 main 1460 1460 P____________P AL031892 25.1575 -53.5076 HU 85 2 25.1575 -53.5076 HU 65 9 349
1892247N12327 1892 38 NA NA NOT_NAMED 1892-09-09 18:00:00 TS 25.6000 -53.6000 85 hurdat_atl main 1474 1474 O____________O hurdat_atl AL031892 25.6000 -53.6000 HU 85 2 25.6000 -53.6000 HU 65 9 349
1892247N12327 1892 38 NA NA NOT_NAMED 1892-09-09 21:00:00 TS 26.0000 -53.7001 main 1489 1489 P____________P AL031892 26.0000 -53.7001 HU 85 2 26.0000 -53.7001 HU 65 8 347
1892247N12327 1892 38 NA NA NOT_NAMED 1892-09-10 00:00:00 TS 26.4000 -53.8000 85 hurdat_atl main 1505 1505 O____________O hurdat_atl AL031892 26.4000 -53.8000 HU 85 2 26.4000 -53.8000 HU 65 9 348
1892247N12327 1892 38 NA NA NOT_NAMED 1892-09-10 03:00:00 TS 26.8500 -53.9075 main 1529 1529 P____________P AL031892 26.8500 -53.9075 HU 85 2 26.8500 -53.9075 HU 65 9 349
1892247N12327 1892 38 NA NA NOT_NAMED 1892-09-10 06:00:00 TS 27.3000 -54.0000 85 hurdat_atl main 1547 1547 O____________O hurdat_atl AL031892 27.3000 -54.0000 HU 85 2 27.3000 -54.0000 HU 65 9 351
1892247N12327 1892 38 NA NA NOT_NAMED 1892-09-10 09:00:00 TS 27.7000 -54.0502 main 1567 1567 P____________P AL031892 27.7000 -54.0502 HU 85 2 27.7000 -54.0502 HU 65 8 354
1892247N12327 1892 38 NA NA NOT_NAMED 1892-09-10 12:00:00 TS 28.1000 -54.1000 85 hurdat_atl main 1596 1596 O____________O hurdat_atl AL031892 28.1000 -54.1000 HU 85 2 28.1000 -54.1000 HU 65 9 351
1892247N12327 1892 38 NA NA NOT_NAMED 1892-09-10 15:00:00 TS 28.5500 -54.1999 main 1625 1625 P____________P AL031892 28.5500 -54.1999 HU 85 2 28.5500 -54.1999 HU 65 9 349
1892247N12327 1892 38 NA NA NOT_NAMED 1892-09-10 18:00:00 TS 29.0000 -54.3000 85 hurdat_atl main 1648 1648 O____________O hurdat_atl AL031892 29.0000 -54.3000 HU 85 2 29.0000 -54.3000 HU 65 9 351
1892247N12327 1892 38 NA NA NOT_NAMED 1892-09-10 21:00:00 TS 29.4000 -54.3577 main 1673 1673 P____________P AL031892 29.4000 -54.3577 HU 85 2 29.4000 -54.3577 HU 65 8 354
1892247N12327 1892 38 NA NA NOT_NAMED 1892-09-11 00:00:00 TS 29.8000 -54.4000 85 hurdat_atl main 1704 1704 O____________O hurdat_atl AL031892 29.8000 -54.4000 HU 85 2 29.8000 -54.4000 HU 65 8 355
1892247N12327 1892 38 NA NA NOT_NAMED 1892-09-11 03:00:00 TS 30.2350 -54.4500 main 1730 1712 P____________P AL031892 30.2350 -54.4500 HU 85 2 30.2350 -54.4500 HU 65 9 355
1892247N12327 1892 38 NA NA NOT_NAMED 1892-09-11 06:00:00 TS 30.7000 -54.5000 85 hurdat_atl main 1712 1667 O____________O hurdat_atl AL031892 30.7000 -54.5000 HU 85 2 30.7000 -54.5000 HU 65 10 354
1892247N12327 1892 38 NA NA NOT_NAMED 1892-09-11 09:00:00 TS 31.1775 -54.5648 main 1657 1604 P____________P AL031892 31.1775 -54.5648 HU 85 2 31.1775 -54.5648 HU 65 10 355
1892247N12327 1892 38 NA NA NOT_NAMED 1892-09-11 12:00:00 TS 31.7000 -54.6000 85 hurdat_atl main 1604 1551 O____________O hurdat_atl AL031892 31.7000 -54.6000 HU 85 2 31.7000 -54.6000 HU 65 11 359
1892247N12327 1892 38 NA NA NOT_NAMED 1892-09-11 15:00:00 TS 32.2549 -54.5944 main 1540 1481 P____________P AL031892 32.2549 -54.5944 HU 85 2 32.2549 -54.5944 HU 65 12 4
1892247N12327 1892 38 NA NA NOT_NAMED 1892-09-11 18:00:00 TS 32.9000 -54.5000 85 hurdat_atl main 1481 1415 O____________O hurdat_atl AL031892 32.9000 -54.5000 HU 85 2 32.9000 -54.5000 HU 65 14 10
1892247N12327 1892 38 NA NA NOT_NAMED 1892-09-11 21:00:00 TS 33.6699 -54.3023 main 1404 1334 P____________P AL031892 33.6699 -54.3023 HU 85 2 33.6699 -54.3023 HU 65 17 15
1892247N12327 1892 38 NA NA NOT_NAMED 1892-09-12 00:00:00 TS 34.5000 -54.0000 85 hurdat_atl main 1334 1257 O____________O hurdat_atl AL031892 34.5000 -54.0000 HU 85 2 34.5000 -54.0000 HU 65 17 19
1892247N12327 1892 38 NA NA NOT_NAMED 1892-09-12 03:00:00 TS 35.3074 -53.6370 main 1257 1168 P____________P AL031892 35.3074 -53.6370 HU 85 2 35.3074 -53.6370 HU 65 17 22
1892247N12327 1892 38 NA NA NOT_NAMED 1892-09-12 06:00:00 TS 36.1000 -53.2000 85 hurdat_atl main 1168 1090 O____________O hurdat_atl AL031892 36.1000 -53.2000 HU 85 2 36.1000 -53.2000 HU 65 17 25
1892247N12327 1892 38 NA NA NOT_NAMED 1892-09-12 09:00:00 TS 36.8721 -52.7365 main 1079 1004 P____________P AL031892 36.8721 -52.7365 HU 85 2 36.8721 -52.7365 HU 65 17 28
1892247N12327 1892 38 NA NA NOT_NAMED 1892-09-12 12:00:00 TS 37.6000 -52.2000 85 hurdat_atl main 1004 942 O____________O hurdat_atl AL031892 37.6000 -52.2000 HU 85 2 37.6000 -52.2000 HU 65 17 33
1892247N12327 1892 38 NA NA NOT_NAMED 1892-09-12 15:00:00 TS 38.2571 -51.5932 main 932 876 P____________P AL031892 38.2571 -51.5932 HU 85 2 38.2571 -51.5932 HU 65 17 38
1892247N12327 1892 38 NA NA NOT_NAMED 1892-09-12 18:00:00 TS 38.9000 -50.9000 85 hurdat_atl main 876 815 O____________O hurdat_atl AL031892 38.9000 -50.9000 HU 85 2 38.9000 -50.9000 HU 65 18 40
1892247N12327 1892 38 NA NA NOT_NAMED 1892-09-12 21:00:00 TS 39.6067 -50.1514 main 815 763 P____________P AL031892 39.6067 -50.1514 HU 85 2 39.6067 -50.1514 HU 65 19 41
1892247N12327 1892 38 NA NA NOT_NAMED 1892-09-13 00:00:00 TS 40.3000 -49.3000 85 hurdat_atl main 767 740 O____________O hurdat_atl AL031892 40.3000 -49.3000 HU 85 2 40.3000 -49.3000 HU 65 19 47
1892247N12327 1892 38 NA NA NOT_NAMED 1892-09-13 03:00:00 TS 40.9068 -48.3499 main 744 730 P____________P AL031892 40.9068 -48.3499 HU 85 2 40.9068 -48.3499 HU 65 19 52
1892247N12327 1892 38 NA NA NOT_NAMED 1892-09-13 06:00:00 TS 41.5000 -47.3000 85 hurdat_atl main 735 732 O____________O hurdat_atl AL031892 41.5000 -47.3000 HU 85 2 41.5000 -47.3000 HU 65 20 52
1892247N12327 1892 38 NA NA NOT_NAMED 1892-09-13 09:00:00 TS 42.1486 -46.2006 main 746 742 P____________P AL031892 42.1486 -46.2006 HU 85 2 42.1486 -46.2006 HU 65 21 53
1892247N12327 1892 38 NA NA NOT_NAMED 1892-09-13 12:00:00 TS 42.8000 -45.0000 85 hurdat_atl main 769 769 O____________O hurdat_atl AL031892 42.8000 -45.0000 HU 85 2 42.8000 -45.0000 HU 65 22 55
1892247N12327 1892 38 NA NA NOT_NAMED 1892-09-13 15:00:00 TS 43.4136 -43.7001 main 818 818 P____________P AL031892 43.4136 -43.7001 HU 82 1 43.4136 -43.7001 HU 65 23 59
1892247N12327 1892 38 NA NA NOT_NAMED 1892-09-13 18:00:00 TS 44.0000 -42.3000 80 hurdat_atl main 884 884 O____________O hurdat_atl AL031892 44.0000 -42.3000 HU 80 1 44.0000 -42.3000 HU 65 24 61
1892247N12327 1892 38 NA NA NOT_NAMED 1892-09-13 21:00:00 TS 44.5639 -40.8203 main 961 961 P____________P AL031892 44.5639 -40.8203 HU 77 1 44.5639 -40.8203 HU 65 24 63
1892247N12327 1892 38 NA NA NOT_NAMED 1892-09-14 00:00:00 TS 45.1000 -39.3000 75 hurdat_atl main 1050 1050 O____________O hurdat_atl AL031892 45.1000 -39.3000 HU 75 1 45.1000 -39.3000 HU 65 24 64
1892247N12327 1892 38 NA NA NOT_NAMED 1892-09-14 03:00:00 TS 45.6144 -37.7609 main 1144 1144 P____________P AL031892 45.6144 -37.7609 HU 72 1 45.6144 -37.7609 HU 65 23 65
1892247N12327 1892 38 NA NA NOT_NAMED 1892-09-14 06:00:00 TS 46.1000 -36.3000 70 hurdat_atl main 1242 1242 O____________O hurdat_atl AL031892 46.1000 -36.3000 HU 70 1 46.1000 -36.3000 HU 65 21 64
1892247N12327 1892 38 NA NA NOT_NAMED 1892-09-14 09:00:00 TS 46.5704 -34.9881 main 1328 1328 P____________P AL031892 46.5704 -34.9881 HU 67 1 46.5704 -34.9881 HU 65 19 62
1892247N12327 1892 38 NA NA NOT_NAMED 1892-09-14 12:00:00 TS 47.0000 -33.8000 65 hurdat_atl main 1410 1410 O____________O hurdat_atl AL031892 47.0000 -33.8000 HU 65 1 47.0000 -33.8000 HU 65 18 63
1892247N12327 1892 38 NA NA NOT_NAMED 1892-09-14 15:00:00 TS 47.3782 -32.6756 main 1485 1485 P____________P AL031892 47.3782 -32.6756 HU 62 0 47.3782 -32.6756 HU 62 16 65
1892247N12327 1892 38 NA NA NOT_NAMED 1892-09-14 18:00:00 TS 47.7000 -31.6000 60 hurdat_atl main 1560 1493 O____________O hurdat_atl AL031892 47.7000 -31.6000 TS 60 0 47.7000 -31.6000 TS 60 16 68
1892247N12327 1892 38 NA NA NOT_NAMED 1892-09-14 21:00:00 TS 47.9789 -30.4990 main 1486 1410 P____________P AL031892 47.9789 -30.4990 TS 60 0 47.9789 -30.4990 TS 60 16 71
1892247N12327 1892 38 NA NA NOT_NAMED 1892-09-15 00:00:00 TS 48.2000 -29.4000 60 hurdat_atl main 1403 1327 O____________O hurdat_atl AL031892 48.2000 -29.4000 TS 60 0 48.2000 -29.4000 TS 60 15 75
1892247N12327 1892 38 NA NA NOT_NAMED 1892-09-15 03:00:00 TS 48.3714 -28.2989 main 1320 1249 P____________P AL031892 48.3714 -28.2989 TS 57 0 48.3714 -28.2989 TS 57 15 78
1892247N12327 1892 38 NA NA NOT_NAMED 1892-09-15 06:00:00 TS 48.5000 -27.2000 55 hurdat_atl main 1242 1166 O____________O hurdat_atl AL031892 48.5000 -27.2000 TS 55 0 48.5000 -27.2000 TS 55 15 79
1892247N12327 1892 38 NA NA NOT_NAMED 1892-09-15 09:00:00 TS 48.6589 -26.1025 main 1160 1093 P____________P AL031892 48.6589 -26.1025 TS 55 0 48.6589 -26.1025 TS 55 15 82
1892247N12327 1892 38 NA NA NOT_NAMED 1892-09-15 12:00:00 MX 48.7000 -25.0000 55 hurdat_atl main 1086 1029 O____________O hurdat_atl AL031892 48.7000 -25.0000 TS 55 0 48.7000 -25.0000 EX 55 15 96
1892247N12327 1892 38 NA NA NOT_NAMED 1892-09-15 15:00:00 MX 48.5164 -23.8986 main 1023 973 P____________P AL031892 48.5164 -23.8986 TS 52 0 48.5164 -23.8986 EX 52 15 109
1892247N12327 1892 38 NA NA NOT_NAMED 1892-09-15 18:00:00 MX 48.2000 -22.8000 50 hurdat_atl main 966 919 O____________O hurdat_atl AL031892 48.2000 -22.8000 TS 50 0 48.2000 -22.8000 EX 50 16 114
1892247N12327 1892 38 NA NA NOT_NAMED 1892-09-15 21:00:00 MX 47.8639 -21.7005 main 913 877 P____________P AL031892 47.8639 -21.7005 TS 50 0 47.8639 -21.7005 EX 50 16 115
1892247N12327 1892 38 NA NA NOT_NAMED 1892-09-16 00:00:00 MX 47.5000 -20.6000 50 hurdat_atl main 871 833 O____________O hurdat_atl AL031892 47.5000 -20.6000 TS 50 0 47.5000 -20.6000 EX 50 16 116
1892247N12327 1892 38 NA NA NOT_NAMED 1892-09-16 03:00:00 MX 47.1415 -19.5010 main 835 799 P____________P AL031892 47.1415 -19.5010 TS 50 0 47.1415 -19.5010 EX 50 16 115
1892247N12327 1892 38 NA NA NOT_NAMED 1892-09-16 06:00:00 MX 46.8000 -18.4000 50 hurdat_atl main 796 739 O____________O hurdat_atl AL031892 46.8000 -18.4000 TS 50 0 46.8000 -18.4000 EX 50 17 113
1892247N12327 1892 38 NA NA NOT_NAMED 1892-09-16 09:00:00 MX 46.4923 -17.2712 main 739 656 P____________P AL031892 46.4923 -17.2712 TS 50 0 46.4923 -17.2712 EX 50 16 112
1892247N12327 1892 38 NA NA NOT_NAMED 1892-09-16 12:00:00 MX 46.2000 -16.2000 50 hurdat_atl main 649 573 O____________O hurdat_atl AL031892 46.2000 -16.2000 TS 50 0 46.2000 -16.2000 EX 50 15 113
1892247N12327 1892 38 NA NA NOT_NAMED 1892-09-16 15:00:00 MX 45.8918 -15.2331 main 566 496 P____________P AL031892 45.8918 -15.2331 TS 50 0 45.8918 -15.2331 EX 50 14 116
1892247N12327 1892 38 NA NA NOT_NAMED 1892-09-16 18:00:00 MX 45.6000 -14.4000 50 hurdat_atl main 496 432 O____________O hurdat_atl AL031892 45.6000 -14.4000 TS 50 0 45.6000 -14.4000 EX 50 12 117
1892247N12327 1892 38 NA NA NOT_NAMED 1892-09-16 21:00:00 MX 45.3344 -13.6834 main 432 381 P____________P AL031892 45.3344 -13.6834 TS 47 0 45.3344 -13.6834 EX 47 10 119
1892247N12327 1892 38 NA NA NOT_NAMED 1892-09-17 00:00:00 MX 45.1000 -13.1000 45 hurdat_atl main 381 336 O____________O hurdat_atl AL031892 45.1000 -13.1000 TS 45 0 45.1000 -13.1000 EX 45 9 120
1892247N12327 1892 38 NA NA NOT_NAMED 1892-09-17 03:00:00 MX 44.8921 -12.6057 main 336 298 P____________P AL031892 44.8921 -12.6057 TS 42 0 44.8921 -12.6057 EX 42 8 122
1892247N12327 1892 38 NA NA NOT_NAMED 1892-09-17 06:00:00 MX 44.7000 -12.2000 40 hurdat_atl main 298 266 O____________O hurdat_atl AL031892 44.7000 -12.2000 TS 40 0 44.7000 -12.2000 EX 40 7 126
1892247N12327 1892 38 NA NA NOT_NAMED 1892-09-17 09:00:00 MX 44.5028 -11.8394 main 259 227 P____________P AL031892 44.5028 -11.8394 TS 37 0 44.5028 -11.8394 EX 37 6 129
1892247N12327 1892 38 NA NA NOT_NAMED 1892-09-17 12:00:00 MX 44.3000 -11.5000 35 hurdat_atl main 227 O____________O hurdat_atl AL031892 44.3000 -11.5000 TS 35 0 44.3000 -11.5000 EX 35 6 130

IBTrACS Databaseについて

本データベースは、米国NOAAが公開する1842年以降の世界の熱帯低気圧のベストトラックデータアーカイブInternational Best Track Archive for Climate Stewardship (IBTrACS)を、ウェブで閲覧しやすい形式に変換したものです。

最終更新日:2021-12-01